Time;durP1;ratioP1;P1;durP2;ratioP2;P2;SDS_P1;SDS_P2;PMS_P1;PMS_P2;Temp;Humidity;BMP_temperature;BMP_pressure;BME280_temperature;BME280_humidity;BME280_pressure;Samples;Min_cycle;Max_cycle;Signal;HPM_P1;HPM_P2
2023/05/26 00:02:50;;;;;;;7.37;6.67;;;16.30;94.70;;;;;;10479297;28;20283;-85
2023/05/26 00:07:54;;;;;;;7.47;6.77;;;16.30;93.90;;;;;;10462895;28;20198;-85
2023/05/26 00:12:57;;;;;;;7.80;7.10;;;16.30;94.30;;;;;;10470280;28;20626;-84
2023/05/26 00:18:01;;;;;;;7.60;7.00;;;16.30;94.80;;;;;;10462369;28;20236;-85
2023/05/26 00:23:03;;;;;;;8.07;7.27;;;16.20;94.80;;;;;;10463043;28;20231;-85
2023/05/26 00:28:07;;;;;;;6.87;6.27;;;16.20;95.00;;;;;;10479021;28;20691;-85
2023/05/26 00:33:09;;;;;;;8.30;7.50;;;16.20;94.80;;;;;;10457403;28;20494;-85
2023/05/26 00:38:13;;;;;;;7.57;6.87;;;16.20;94.90;;;;;;10479784;28;20244;-85
2023/05/26 00:43:16;;;;;;;6.97;6.33;;;16.10;94.40;;;;;;10453465;28;20253;-85
2023/05/26 00:48:18;;;;;;;7.67;7.17;;;16.10;94.20;;;;;;10474373;28;20210;-85
2023/05/26 00:53:20;;;;;;;7.30;6.63;;;16.00;94.50;;;;;;10456080;28;20735;-85
2023/05/26 00:58:25;;;;;;;7.00;6.40;;;16.00;94.60;;;;;;10470776;28;20205;-85
2023/05/26 01:03:27;;;;;;;6.90;6.30;;;16.00;94.20;;;;;;10466133;28;20229;-85
2023/05/26 01:08:30;;;;;;;6.80;6.20;;;16.10;94.30;;;;;;10470507;28;20575;-85
2023/05/26 01:13:47;;;;;;;6.60;6.10;;;16.10;94.30;;;;;;10456350;28;20218;-85
2023/05/26 01:18:58;;;;;;;6.73;6.10;;;16.10;94.40;;;;;;10467321;28;20215;-85
2023/05/26 01:24:15;;;;;;;6.97;6.37;;;16.10;94.30;;;;;;10469600;28;20720;-85
2023/05/26 01:29:21;;;;;;;7.07;6.47;;;16.10;94.70;;;;;;10491994;28;20205;-85
2023/05/26 01:34:23;;;;;;;8.50;7.00;;;16.10;94.30;;;;;;10457876;28;20328;-85
2023/05/26 01:39:25;;;;;;;7.83;6.60;;;16.10;94.60;;;;;;10457990;28;20205;-85
2023/05/26 01:44:32;;;;;;;7.17;6.50;;;16.20;94.50;;;;;;10465113;28;20327;-85
2023/05/26 01:49:39;;;;;;;7.50;6.70;;;16.20;94.90;;;;;;10471126;28;20265;-85
2023/05/26 01:54:46;;;;;;;7.63;7.00;;;16.20;94.90;;;;;;10477810;28;20292;-85
2023/05/26 01:59:51;;;;;;;8.70;7.27;;;16.20;95.30;;;;;;10468165;28;20276;-85
2023/05/26 02:04:54;;;;;;;7.90;6.93;;;16.30;95.00;;;;;;10471767;28;20595;-85
2023/05/26 02:09:57;;;;;;;8.50;7.80;;;16.30;95.10;;;;;;10479148;28;20240;-85
2023/05/26 02:15:00;;;;;;;7.30;6.70;;;16.30;94.90;;;;;;10473898;28;20236;-85
2023/05/26 02:20:03;;;;;;;7.93;7.23;;;16.30;95.00;;;;;;10480156;28;20201;-84
2023/05/26 02:25:06;;;;;;;9.53;7.70;;;16.40;95.30;;;;;;10467202;28;20753;-85
2023/05/26 02:30:11;;;;;;;7.60;7.00;;;16.40;94.90;;;;;;10452070;28;20209;-85
2023/05/26 02:35:13;;;;;;;7.90;7.20;;;16.40;95.20;;;;;;10456585;28;20324;-85
2023/05/26 02:40:15;;;;;;;8.10;7.37;;;16.40;94.80;;;;;;10473484;28;20673;-85
2023/05/26 02:45:19;;;;;;;7.60;6.90;;;16.40;94.90;;;;;;10464986;28;20231;-85
2023/05/26 02:50:22;;;;;;;7.90;7.20;;;16.40;95.20;;;;;;10455471;28;20249;-85
2023/05/26 02:55:25;;;;;;;8.00;7.33;;;16.40;95.50;;;;;;10468052;28;20237;-84
2023/05/26 03:00:28;;;;;;;9.17;8.37;;;16.40;95.10;;;;;;10464125;28;20658;-84
2023/05/26 03:05:30;;;;;;;7.97;7.37;;;16.40;94.60;;;;;;10420810;23;20927;-83
2023/05/26 03:10:33;;;;;;;7.37;6.80;;;16.40;94.50;;;;;;10414264;28;20270;-82
2023/05/26 03:15:39;;;;;;;9.33;8.07;;;16.40;95.00;;;;;;10365789;28;20230;-82
2023/05/26 03:20:48;;;;;;;11.43;8.60;;;16.30;94.70;;;;;;10378517;28;20268;-82
2023/05/26 03:25:50;;;;;;;7.47;6.87;;;16.30;94.90;;;;;;10362214;28;20227;-83
2023/05/26 03:30:56;;;;;;;9.50;8.60;;;16.20;95.00;;;;;;10344411;28;20206;-83
2023/05/26 03:36:00;;;;;;;8.60;7.50;;;16.20;94.80;;;;;;10360232;28;20329;-83
2023/05/26 03:41:03;;;;;;;7.77;7.13;;;16.20;94.80;;;;;;10362561;28;20405;-83
2023/05/26 03:46:09;;;;;;;8.10;7.37;;;16.10;95.40;;;;;;10361271;28;20936;-83
2023/05/26 03:51:11;;;;;;;9.70;7.90;;;16.00;95.10;;;;;;10375031;28;20219;-81
2023/05/26 03:56:13;;;;;;;8.80;7.90;;;16.00;95.50;;;;;;10364410;28;20227;-81
2023/05/26 04:01:19;;;;;;;8.13;7.43;;;15.90;95.40;;;;;;10364358;28;20362;-82
2023/05/26 04:06:22;;;;;;;8.93;7.73;;;15.90;95.30;;;;;;10366262;28;20215;-82
2023/05/26 04:11:25;;;;;;;8.47;7.77;;;15.90;95.70;;;;;;10401323;28;20273;-82
2023/05/26 04:16:28;;;;;;;8.67;7.97;;;16.00;94.60;;;;;;10369405;28;20321;-81
2023/05/26 04:21:32;;;;;;;9.37;8.17;;;16.00;94.90;;;;;;10375787;28;20227;-82
2023/05/26 04:26:34;;;;;;;8.90;8.03;;;16.00;95.30;;;;;;10371831;28;20214;-83
2023/05/26 04:31:43;;;;;;;10.70;9.70;;;16.00;94.80;;;;;;10371935;28;20326;-82
2023/05/26 04:37:04;;;;;;;8.00;7.30;;;16.00;94.90;;;;;;10353993;28;20292;-83
2023/05/26 04:42:06;;;;;;;9.57;8.77;;;16.10;95.60;;;;;;10376754;28;20817;-82
2023/05/26 04:47:10;;;;;;;9.90;9.10;;;16.20;95.40;;;;;;10363948;28;20234;-81
2023/05/26 04:52:13;;;;;;;12.10;8.93;;;16.30;95.40;;;;;;10345794;28;21061;-81
2023/05/26 04:57:16;;;;;;;9.30;8.40;;;16.40;94.70;;;;;;10362746;28;20230;-81
2023/05/26 05:02:24;;;;;;;9.57;8.57;;;16.50;94.60;;;;;;10361206;28;20235;-82
2023/05/26 05:07:39;;;;;;;10.93;9.20;;;16.40;94.70;;;;;;10381566;28;20209;-81
2023/05/26 05:12:42;;;;;;;11.03;9.17;;;16.50;94.00;;;;;;10355950;28;20597;-83
2023/05/26 05:17:48;;;;;;;9.50;8.53;;;16.40;94.70;;;;;;10372046;28;20579;-83
2023/05/26 05:22:50;;;;;;;11.40;9.03;;;16.40;95.20;;;;;;10359524;28;20601;-84
2023/05/26 05:27:54;;;;;;;10.57;9.47;;;16.40;95.00;;;;;;10362022;28;20234;-82
2023/05/26 05:32:58;;;;;;;12.27;9.90;;;16.40;95.10;;;;;;10366119;28;20623;-80
2023/05/26 05:38:01;;;;;;;10.33;9.20;;;16.40;95.00;;;;;;10362658;28;20227;-82
2023/05/26 05:43:04;;;;;;;10.13;9.33;;;16.40;94.90;;;;;;10353524;28;20239;-79
2023/05/26 05:48:07;;;;;;;10.07;9.17;;;16.40;94.80;;;;;;10362043;28;20294;-82
2023/05/26 05:53:18;;;;;;;10.70;8.50;;;16.40;95.10;;;;;;10360923;28;20263;-81
2023/05/26 05:58:20;;;;;;;10.50;8.43;;;16.50;94.90;;;;;;10343742;28;20255;-81
2023/05/26 06:03:23;;;;;;;8.90;8.10;;;16.50;95.10;;;;;;10353517;28;20245;-80
2023/05/26 06:08:26;;;;;;;13.07;9.40;;;16.50;95.20;;;;;;10388194;28;20208;-82
2023/05/26 06:13:28;;;;;;;8.77;7.87;;;16.60;95.10;;;;;;10344638;28;20229;-82
2023/05/26 06:18:32;;;;;;;12.00;10.17;;;16.60;94.70;;;;;;10346634;28;20211;-81
2023/05/26 06:23:34;;;;;;;11.47;9.87;;;16.70;94.80;;;;;;10374445;28;20231;-82
2023/05/26 06:28:37;;;;;;;9.97;9.03;;;16.80;95.00;;;;;;10358287;28;20219;-82
2023/05/26 06:33:40;;;;;;;11.10;9.03;;;17.00;94.10;;;;;;10392091;28;20825;-81
2023/05/26 06:38:43;;;;;;;11.90;8.57;;;17.20;95.00;;;;;;10376868;28;20291;-82
2023/05/26 06:43:45;;;;;;;13.10;8.77;;;17.50;94.60;;;;;;10387850;28;20229;-82
2023/05/26 06:48:49;;;;;;;10.57;9.30;;;17.80;93.10;;;;;;10413635;28;20211;-81
2023/05/26 06:53:59;;;;;;;12.60;9.60;;;18.00;94.00;;;;;;10370392;28;20231;-81
2023/05/26 06:59:01;;;;;;;11.70;8.87;;;18.30;94.10;;;;;;10387276;28;20698;-81
2023/05/26 07:04:05;;;;;;;8.63;7.70;;;18.60;93.30;;;;;;10412825;28;20231;-81
2023/05/26 07:09:07;;;;;;;10.33;7.60;;;18.90;93.20;;;;;;10374185;28;20270;-82
2023/05/26 07:14:13;;;;;;;12.20;8.50;;;19.10;92.90;;;;;;10365812;28;20219;-82
2023/05/26 07:19:16;;;;;;;8.97;8.07;;;19.50;92.60;;;;;;10360303;28;20239;-83
2023/05/26 07:24:20;;;;;;;8.20;7.40;;;19.70;92.80;;;;;;10358667;28;20227;-82
2023/05/26 07:29:22;;;;;;;12.70;8.40;;;20.00;92.00;;;;;;10353735;28;20234;-81
2023/05/26 07:34:26;;;;;;;11.27;8.90;;;20.30;91.30;;;;;;10373458;28;20352;-81
2023/05/26 07:39:28;;;;;;;9.37;8.40;;;20.80;91.10;;;;;;10354482;28;20215;-82
2023/05/26 07:44:30;;;;;;;10.67;7.93;;;21.10;90.00;;;;;;10368213;28;20227;-82
2023/05/26 07:49:33;;;;;;;8.00;7.20;;;21.60;88.20;;;;;;10352769;28;20211;-83
2023/05/26 07:54:36;;;;;;;8.17;7.30;;;22.00;89.00;;;;;;10370265;28;20245;-82
2023/05/26 07:59:38;;;;;;;9.43;7.90;;;22.50;87.50;;;;;;10371362;28;20243;-83
2023/05/26 08:04:44;;;;;;;8.40;6.57;;;23.00;87.90;;;;;;10360157;28;20238;-81
2023/05/26 08:09:46;;;;;;;9.10;8.20;;;23.50;87.20;;;;;;10360119;28;20222;-81
2023/05/26 08:14:49;;;;;;;11.23;7.77;;;23.90;81.20;;;;;;10375715;28;20223;-82
2023/05/26 08:19:55;;;;;;;7.53;6.73;;;24.30;84.60;;;;;;10362503;28;20214;-83
2023/05/26 08:24:58;;;;;;;8.20;6.27;;;24.60;85.40;;;;;;10372768;28;20360;-83
2023/05/26 08:30:00;;;;;;;7.27;6.60;;;24.90;84.20;;;;;;10389404;28;20294;-83
2023/05/26 08:35:04;;;;;;;7.67;7.07;;;25.20;84.00;;;;;;10391206;28;20223;-83
2023/05/26 08:40:07;;;;;;;8.53;7.70;;;25.40;80.00;;;;;;10383848;28;20204;-82
2023/05/26 08:45:10;;;;;;;7.20;6.50;;;25.50;79.80;;;;;;10382820;28;20219;-82
2023/05/26 08:50:16;;;;;;;8.10;7.33;;;25.60;81.20;;;;;;10394004;28;20215;-82
2023/05/26 08:55:18;;;;;;;7.90;6.27;;;25.80;80.80;;;;;;10398981;28;20234;-82
2023/05/26 09:00:21;;;;;;;8.80;6.30;;;25.90;82.10;;;;;;10386959;28;20354;-82
2023/05/26 09:05:25;;;;;;;11.53;7.53;;;26.10;80.80;;;;;;10386530;28;20262;-82
2023/05/26 09:10:30;;;;;;;9.40;7.27;;;26.30;79.10;;;;;;10367485;28;20286;-82
2023/05/26 09:15:35;;;;;;;7.73;7.00;;;26.40;78.10;;;;;;10366991;28;20261;-82
2023/05/26 09:20:42;;;;;;;9.23;6.93;;;26.50;77.90;;;;;;10366703;28;20207;-82
2023/05/26 09:25:46;;;;;;;7.40;6.70;;;26.60;78.90;;;;;;10366652;28;20234;-82
2023/05/26 09:30:48;;;;;;;9.83;7.97;;;26.70;78.00;;;;;;10366882;28;20254;-82
2023/05/26 09:35:52;;;;;;;6.93;6.23;;;26.90;73.40;;;;;;10381862;28;20227;-82
2023/05/26 09:40:54;;;;;;;11.37;6.30;;;27.00;77.00;;;;;;10367794;28;20238;-83
2023/05/26 09:45:56;;;;;;;8.17;6.20;;;27.10;78.10;;;;;;10364979;28;20354;-83
2023/05/26 09:50:59;;;;;;;8.93;7.63;;;27.30;77.80;;;;;;10363952;28;20597;-83
2023/05/26 09:56:03;;;;;;;10.53;7.03;;;27.30;74.60;;;;;;10366123;28;20258;-83
2023/05/26 10:01:06;;;;;;;9.53;7.70;;;27.40;72.50;;;;;;10367691;28;20207;-83
2023/05/26 10:06:09;;;;;;;7.43;6.70;;;27.50;78.10;;;;;;10366180;28;20231;-83
2023/05/26 10:11:13;;;;;;;12.20;7.27;;;27.80;77.90;;;;;;10367053;28;20302;-83
2023/05/26 10:16:15;;;;;;;9.20;6.33;;;28.10;76.50;;;;;;10365688;28;20782;-83
2023/05/26 10:21:23;;;;;;;7.77;7.00;;;28.20;70.80;;;;;;10363896;28;20285;-83
2023/05/26 10:26:32;;;;;;;7.43;6.67;;;27.80;71.00;;;;;;10364492;28;20215;-82
2023/05/26 10:31:36;;;;;;;8.10;6.83;;;26.90;74.80;;;;;;10364203;28;20227;-82
2023/05/26 10:36:41;;;;;;;11.13;7.20;;;26.10;78.20;;;;;;10364702;28;20250;-82
2023/05/26 10:41:49;;;;;;;8.83;7.97;;;25.50;80.30;;;;;;10364437;28;20248;-82
2023/05/26 10:47:05;;;;;;;8.07;7.00;;;24.90;79.80;;;;;;10365918;28;20221;-82
2023/05/26 10:52:13;;;;;;;9.23;7.80;;;24.40;79.60;;;;;;10365156;28;20230;-83
2023/05/26 10:57:32;;;;;;;7.00;5.30;;;24.00;80.50;;;;;;10379661;28;20506;-82
2023/05/26 11:02:37;;;;;;;10.37;7.97;;;23.60;79.10;;;;;;10380096;28;20689;-83
2023/05/26 11:07:42;;;;;;;7.10;6.40;;;23.30;79.40;;;;;;10368576;28;20207;-82
2023/05/26 11:12:52;;;;;;;9.50;8.50;;;23.10;85.50;;;;;;10391037;28;20230;-82
2023/05/26 11:17:58;;;;;;;8.63;7.73;;;22.80;84.30;;;;;;10396248;28;20231;-82
2023/05/26 11:23:01;;;;;;;7.10;6.40;;;22.60;82.00;;;;;;10380841;28;20235;-82
2023/05/26 11:28:06;;;;;;;7.27;6.53;;;22.40;84.40;;;;;;10378421;28;20203;-82
2023/05/26 11:33:14;;;;;;;10.23;7.20;;;22.30;87.20;;;;;;10363245;28;20345;-82
2023/05/26 11:38:19;;;;;;;7.57;6.93;;;22.20;84.20;;;;;;10364140;28;20235;-82
2023/05/26 11:43:26;;;;;;;12.87;7.80;;;22.10;86.00;;;;;;10363167;28;20321;-83
2023/05/26 11:48:34;;;;;;;8.20;7.40;;;22.00;84.60;;;;;;10381265;28;20238;-81
2023/05/26 11:53:41;;;;;;;9.40;7.17;;;22.00;83.80;;;;;;10365572;28;20227;-81
2023/05/26 11:58:46;;;;;;;8.13;6.83;;;22.00;87.50;;;;;;10380125;28;20754;-82
2023/05/26 12:03:49;;;;;;;8.07;7.20;;;21.90;87.70;;;;;;10387403;28;20246;-81
2023/05/26 12:08:54;;;;;;;8.90;7.00;;;21.80;87.10;;;;;;10369835;28;20203;-83
2023/05/26 12:13:58;;;;;;;7.97;6.60;;;21.90;85.50;;;;;;10261180;28;20233;-82
2023/05/26 12:19:02;;;;;;;9.13;8.10;;;21.90;85.10;;;;;;10274503;28;20733;-83
2023/05/26 12:24:06;;;;;;;7.50;6.80;;;22.00;84.40;;;;;;10252120;28;20252;-82
2023/05/26 12:29:10;;;;;;;9.60;6.77;;;21.90;85.70;;;;;;10267902;28;20213;-82
2023/05/26 12:34:14;;;;;;;8.30;7.40;;;21.90;85.50;;;;;;10261695;28;20242;-82
2023/05/26 12:39:19;;;;;;;8.13;7.33;;;22.00;85.20;;;;;;10263934;28;20235;-82
2023/05/26 12:44:21;;;;;;;12.53;6.10;;;22.00;84.20;;;;;;10246566;28;20256;-83
2023/05/26 12:49:23;;;;;;;7.40;6.57;;;22.00;85.50;;;;;;10244367;28;20782;-82
2023/05/26 12:54:27;;;;;;;7.90;6.70;;;22.00;85.10;;;;;;10244261;28;20340;-82
2023/05/26 12:59:29;;;;;;;9.70;6.80;;;22.00;86.20;;;;;;10260288;28;20233;-83
2023/05/26 13:04:31;;;;;;;7.03;6.50;;;22.00;83.60;;;;;;10243485;28;20237;-82
2023/05/26 13:09:35;;;;;;;7.30;6.60;;;22.10;84.50;;;;;;10246426;28;20314;-81
2023/05/26 13:14:37;;;;;;;6.83;6.20;;;22.10;84.10;;;;;;10243600;28;20601;-82
2023/05/26 13:19:39;;;;;;;9.93;7.10;;;22.10;84.20;;;;;;10243859;28;20225;-82
2023/05/26 13:24:42;;;;;;;7.37;6.30;;;22.10;82.80;;;;;;10246617;28;20256;-81
2023/05/26 13:29:44;;;;;;;7.07;6.40;;;22.10;84.30;;;;;;10246616;28;20229;-81
2023/05/26 13:34:46;;;;;;;6.30;5.70;;;22.20;83.50;;;;;;10259208;28;20300;-83
2023/05/26 13:39:50;;;;;;;7.20;6.50;;;22.20;83.80;;;;;;10244884;28;20344;-82
2023/05/26 13:44:52;;;;;;;7.97;6.43;;;22.30;82.80;;;;;;10229081;28;20347;-83
2023/05/26 13:49:55;;;;;;;7.20;6.50;;;22.30;84.40;;;;;;10256887;28;20638;-81
2023/05/26 13:54:59;;;;;;;7.13;6.43;;;22.30;83.20;;;;;;10260220;28;20235;-82
2023/05/26 14:00:01;;;;;;;7.30;6.60;;;22.30;82.20;;;;;;10246565;28;20229;-83
2023/05/26 14:05:05;;;;;;;7.27;6.53;;;22.40;82.60;;;;;;10237911;28;20245;-82
2023/05/26 14:10:10;;;;;;;6.63;5.83;;;22.40;81.90;;;;;;10240251;28;20201;-83
2023/05/26 14:15:12;;;;;;;7.63;6.93;;;22.30;83.50;;;;;;10240938;28;20620;-82
2023/05/26 14:20:14;;;;;;;8.00;5.93;;;22.30;84.50;;;;;;10240600;28;20292;-83
2023/05/26 14:25:18;;;;;;;6.53;5.90;;;22.30;85.40;;;;;;10252233;28;20701;-83
2023/05/26 14:30:22;;;;;;;6.40;5.77;;;22.20;83.10;;;;;;10239075;28;20246;-83
2023/05/26 14:35:24;;;;;;;8.27;5.73;;;22.20;84.60;;;;;;10253632;28;20555;-82
2023/05/26 14:40:29;;;;;;;6.23;5.67;;;22.40;82.50;;;;;;10234527;28;20578;-82
2023/05/26 14:45:31;;;;;;;8.13;6.40;;;22.40;81.90;;;;;;10234109;28;20331;-82
2023/05/26 14:50:33;;;;;;;8.07;7.30;;;22.30;81.80;;;;;;10239298;28;20280;-82
2023/05/26 14:55:37;;;;;;;8.23;7.50;;;22.30;80.70;;;;;;10238278;28;20237;-83
2023/05/26 15:00:39;;;;;;;6.83;6.30;;;22.30;81.20;;;;;;10221422;28;20611;-83
2023/05/26 15:05:41;;;;;;;7.47;6.77;;;22.20;84.60;;;;;;10237807;28;20232;-82
2023/05/26 15:10:45;;;;;;;8.57;6.20;;;22.10;85.10;;;;;;10254698;28;20670;-82
2023/05/26 15:15:50;;;;;;;8.17;6.80;;;22.10;81.80;;;;;;10244482;28;20240;-82
2023/05/26 15:20:57;;;;;;;7.10;6.40;;;22.20;80.30;;;;;;10246294;28;20315;-82
2023/05/26 15:26:01;;;;;;;5.97;5.37;;;22.20;81.50;;;;;;10245403;28;20225;-82
2023/05/26 15:31:03;;;;;;;8.10;6.47;;;22.20;84.70;;;;;;10246281;28;20903;-82
2023/05/26 15:36:05;;;;;;;6.80;6.30;;;22.10;82.20;;;;;;10270596;28;20283;-83
2023/05/26 15:41:08;;;;;;;8.17;6.50;;;22.10;82.10;;;;;;10250648;28;20213;-82
2023/05/26 15:46:11;;;;;;;6.40;5.73;;;22.10;81.40;;;;;;10260070;28;20237;-81
2023/05/26 15:51:13;;;;;;;7.20;6.27;;;22.10;82.60;;;;;;10257344;28;20220;-83
2023/05/26 15:56:16;;;;;;;5.83;5.33;;;22.10;81.60;;;;;;10233036;28;20875;-83
2023/05/26 16:01:18;;;;;;;5.70;5.20;;;22.10;80.80;;;;;;10248426;28;20241;-81
2023/05/26 16:06:21;;;;;;;8.07;7.00;;;22.20;84.20;;;;;;10249673;28;20205;-82
2023/05/26 16:11:25;;;;;;;8.60;6.07;;;22.20;79.50;;;;;;10251523;28;20213;-83
2023/05/26 16:16:27;;;;;;;6.33;5.73;;;22.10;79.90;;;;;;10245381;28;20300;-83
2023/05/26 16:21:30;;;;;;;8.67;7.40;;;22.10;82.20;;;;;;10231805;28;20713;-83
2023/05/26 16:26:34;;;;;;;6.67;6.07;;;22.10;78.90;;;;;;10245518;28;20210;-82
2023/05/26 16:31:36;;;;;;;6.90;6.20;;;22.10;80.20;;;;;;10242456;28;20603;-83
2023/05/26 16:36:38;;;;;;;6.73;5.87;;;22.10;79.90;;;;;;10241899;28;20240;-83
2023/05/26 16:41:44;;;;;;;6.73;6.03;;;22.10;80.40;;;;;;10223893;28;20587;-83
2023/05/26 16:46:46;;;;;;;6.33;5.67;;;22.00;80.70;;;;;;10254687;28;20225;-83
2023/05/26 16:51:48;;;;;;;6.70;6.00;;;22.00;81.20;;;;;;10242189;28;20230;-83
2023/05/26 16:56:51;;;;;;;6.60;6.00;;;21.90;82.10;;;;;;10224210;28;20256;-83
2023/05/26 17:01:53;;;;;;;6.70;6.00;;;21.90;80.60;;;;;;10239778;28;20237;-82
2023/05/26 17:06:55;;;;;;;6.53;5.83;;;21.90;80.60;;;;;;10241076;28;20666;-82
2023/05/26 17:12:01;;;;;;;6.23;5.73;;;21.90;81.90;;;;;;10241396;28;20217;-83
2023/05/26 17:17:03;;;;;;;6.57;5.90;;;21.80;81.70;;;;;;10241284;28;20233;-83
2023/05/26 17:22:05;;;;;;;7.77;6.90;;;21.80;81.00;;;;;;10224589;28;20666;-83
2023/05/26 17:27:09;;;;;;;7.30;6.60;;;21.70;81.50;;;;;;10237175;28;20206;-83
2023/05/26 17:32:16;;;;;;;9.23;6.10;;;21.70;81.10;;;;;;10224579;28;20315;-83
2023/05/26 17:37:18;;;;;;;6.07;5.57;;;21.70;80.80;;;;;;10251044;28;20226;-83
2023/05/26 17:42:22;;;;;;;6.13;5.57;;;21.60;81.40;;;;;;10241705;28;20320;-81
2023/05/26 17:47:26;;;;;;;6.00;5.40;;;21.60;82.70;;;;;;10242222;28;20201;-83
2023/05/26 17:52:28;;;;;;;6.77;6.17;;;21.50;83.80;;;;;;10249075;28;20580;-83
2023/05/26 17:57:32;;;;;;;8.10;6.00;;;21.50;82.30;;;;;;10235723;28;20243;-83
2023/05/26 18:02:34;;;;;;;7.10;6.50;;;21.40;81.40;;;;;;10286015;28;20233;-83
2023/05/26 18:07:36;;;;;;;7.73;6.53;;;21.30;81.80;;;;;;10266178;28;20242;-83
2023/05/26 18:12:39;;;;;;;7.30;6.00;;;21.30;84.70;;;;;;10256453;28;20244;-82
2023/05/26 18:17:41;;;;;;;6.80;5.93;;;21.20;82.50;;;;;;10242280;28;20343;-83
2023/05/26 18:22:43;;;;;;;6.53;5.93;;;21.10;85.00;;;;;;10238558;28;20316;-83
2023/05/26 18:27:47;;;;;;;6.73;6.03;;;21.00;81.30;;;;;;10239565;28;20249;-83
2023/05/26 18:32:49;;;;;;;6.30;5.80;;;21.00;81.40;;;;;;10247398;28;20266;-83
2023/05/26 18:37:53;;;;;;;7.47;5.50;;;20.90;84.00;;;;;;10251666;28;20235;-83
2023/05/26 18:42:56;;;;;;;8.93;5.73;;;20.90;80.60;;;;;;10219340;28;20316;-83
2023/05/26 18:47:58;;;;;;;8.43;6.20;;;20.80;81.60;;;;;;10236710;28;20209;-83
2023/05/26 18:53:02;;;;;;;6.83;6.17;;;20.80;87.60;;;;;;10258111;28;20248;-83
2023/05/26 18:58:05;;;;;;;8.67;6.33;;;20.70;81.10;;;;;;10241082;28;20232;-83
2023/05/26 19:03:07;;;;;;;6.50;5.90;;;20.60;80.60;;;;;;10243738;28;20980;-83
2023/05/26 19:08:11;;;;;;;6.00;5.43;;;20.60;83.70;;;;;;10244293;28;20213;-83
2023/05/26 19:13:14;;;;;;;7.17;6.57;;;20.50;82.70;;;;;;10240473;28;20331;-83
2023/05/26 19:18:17;;;;;;;8.10;5.80;;;20.50;84.00;;;;;;10244445;28;20766;-83
2023/05/26 19:23:19;;;;;;;6.00;5.40;;;20.40;82.50;;;;;;10240849;28;20308;-83
2023/05/26 19:28:22;;;;;;;5.93;5.33;;;20.30;81.70;;;;;;10241652;28;20220;-83
2023/05/26 19:33:24;;;;;;;6.00;5.30;;;20.30;87.10;;;;;;10237515;28;20232;-82
2023/05/26 19:38:27;;;;;;;8.80;5.90;;;20.20;88.70;;;;;;10237983;28;20244;-82
2023/05/26 19:43:30;;;;;;;8.80;6.03;;;20.10;88.50;;;;;;10240437;28;20229;-80
2023/05/26 19:48:33;;;;;;;8.27;5.77;;;20.00;86.80;;;;;;10241179;28;20556;-80
2023/05/26 19:53:35;;;;;;;8.73;6.33;;;19.90;88.00;;;;;;10225299;28;20263;-82
2023/05/26 19:58:38;;;;;;;6.90;6.20;;;19.80;89.00;;;;;;10244175;28;20217;-82
2023/05/26 20:03:40;;;;;;;6.23;5.40;;;19.70;89.40;;;;;;10259116;28;20262;-81
2023/05/26 20:08:42;;;;;;;6.10;5.50;;;19.60;88.50;;;;;;10275922;28;20229;-81
2023/05/26 20:13:46;;;;;;;6.77;6.10;;;19.50;88.90;;;;;;10272090;28;20701;-82
2023/05/26 20:18:48;;;;;;;7.70;6.70;;;19.40;90.20;;;;;;10242759;28;20225;-82
2023/05/26 20:23:50;;;;;;;6.90;6.33;;;19.30;90.00;;;;;;10258756;28;20224;-82
2023/05/26 20:28:55;;;;;;;6.10;5.50;;;19.20;89.00;;;;;;10233934;28;20848;-82
2023/05/26 20:33:57;;;;;;;8.30;6.00;;;19.10;88.20;;;;;;10242607;28;20312;-82
2023/05/26 20:38:59;;;;;;;7.37;6.57;;;19.10;88.40;;;;;;10247000;28;20311;-82
2023/05/26 20:44:02;;;;;;;13.93;6.47;;;19.00;89.20;;;;;;10230968;28;20233;-82
2023/05/26 20:49:04;;;;;;;8.07;6.47;;;18.90;88.80;;;;;;10251509;28;20670;-82
2023/05/26 20:54:07;;;;;;;6.67;5.97;;;18.90;88.50;;;;;;10299241;28;20352;-81
2023/05/26 20:59:12;;;;;;;6.53;6.00;;;18.80;89.30;;;;;;10303905;28;20283;-82
2023/05/26 21:04:17;;;;;;;8.30;6.67;;;18.70;90.00;;;;;;10313317;23;20228;-81
2023/05/26 21:09:19;;;;;;;7.13;6.43;;;18.60;90.70;;;;;;10287912;28;20735;-83
2023/05/26 21:14:22;;;;;;;6.23;5.70;;;18.60;90.00;;;;;;10263566;28;20232;-79
2023/05/26 21:19:26;;;;;;;7.30;5.87;;;18.50;90.00;;;;;;10276061;28;20233;-82
2023/05/26 21:24:30;;;;;;;6.20;5.73;;;18.40;90.10;;;;;;10270583;28;20274;-84
2023/05/26 21:29:36;;;;;;;8.13;7.33;;;18.30;90.00;;;;;;10256895;28;20494;-81
2023/05/26 21:34:43;;;;;;;7.00;6.30;;;18.30;90.10;;;;;;10277747;28;20252;-81
2023/05/26 21:39:48;;;;;;;6.97;6.27;;;18.20;90.20;;;;;;10278569;28;20228;-81
2023/05/26 21:44:58;;;;;;;7.57;6.40;;;18.10;90.40;;;;;;10273772;28;20240;-81
2023/05/26 21:50:07;;;;;;;8.13;6.30;;;18.00;90.90;;;;;;10275561;28;20204;-82
2023/05/26 21:55:11;;;;;;;6.93;6.23;;;18.10;90.90;;;;;;10282085;28;20304;-84
2023/05/26 22:00:23;;;;;;;7.40;6.63;;;18.00;90.90;;;;;;10279362;28;20224;-80
2023/05/26 22:05:28;;;;;;;7.17;6.40;;;18.00;90.60;;;;;;10276777;28;20290;-79
2023/05/26 22:10:32;;;;;;;7.67;6.10;;;18.00;90.90;;;;;;10271949;28;20211;-82
2023/05/26 22:15:41;;;;;;;8.20;6.70;;;18.00;90.70;;;;;;10267084;28;20223;-83
2023/05/26 22:20:49;;;;;;;7.07;5.73;;;18.00;90.50;;;;;;10272203;28;20225;-83
2023/05/26 22:25:53;;;;;;;6.83;5.40;;;18.00;90.40;;;;;;10254968;28;20272;-81
2023/05/26 22:31:03;;;;;;;6.57;5.93;;;17.90;90.20;;;;;;10285767;28;20212;-82
2023/05/26 22:36:05;;;;;;;6.57;5.33;;;17.90;90.20;;;;;;10260109;28;20239;-82
2023/05/26 22:41:07;;;;;;;6.50;5.73;;;17.80;89.50;;;;;;10269020;28;20923;-81
2023/05/26 22:46:11;;;;;;;7.40;5.30;;;17.80;89.00;;;;;;10270509;28;20224;-81
2023/05/26 22:51:13;;;;;;;6.57;5.80;;;17.70;89.70;;;;;;10260143;28;20201;-84
2023/05/26 22:56:15;;;;;;;5.73;5.20;;;17.60;88.60;;;;;;10252490;28;20304;-85
2023/05/26 23:01:18;;;;;;;7.13;4.97;;;17.60;89.10;;;;;;10253788;28;20650;-83
2023/05/26 23:06:20;;;;;;;8.10;5.40;;;17.50;89.60;;;;;;10269348;28;20248;-82
2023/05/26 23:11:23;;;;;;;8.97;5.23;;;17.40;88.60;;;;;;10266487;28;20209;-83
2023/05/26 23:16:27;;;;;;;6.00;5.23;;;17.40;88.90;;;;;;10255451;28;20601;-84
2023/05/26 23:21:29;;;;;;;7.13;5.67;;;17.30;89.10;;;;;;10271114;28;20745;-82
2023/05/26 23:26:31;;;;;;;5.50;5.00;;;17.30;88.50;;;;;;10267440;28;20701;-80
2023/05/26 23:31:34;;;;;;;7.63;5.80;;;17.20;89.80;;;;;;10271040;28;20225;-82
2023/05/26 23:36:36;;;;;;;7.87;4.77;;;17.20;89.70;;;;;;10278167;28;20260;-81
2023/05/26 23:41:39;;;;;;;5.20;4.70;;;17.10;88.60;;;;;;10280714;28;20235;-82
2023/05/26 23:46:42;;;;;;;7.67;5.87;;;17.00;89.70;;;;;;10260524;28;20235;-79
2023/05/26 23:51:44;;;;;;;7.00;5.20;;;17.00;90.00;;;;;;10258123;28;20228;-80
2023/05/26 23:56:46;;;;;;;6.43;5.73;;;17.00;89.80;;;;;;10274802;28;20252;-83
